Time;durP1;ratioP1;P1;durP2;ratioP2;P2;SDS_P1;SDS_P2;PMS_P1;PMS_P2;Temp;Humidity;BMP_temperature;BMP_pressure;BME280_temperature;BME280_humidity;BME280_pressure;Samples;Min_cycle;Max_cycle;Signal;HPM_P1;HPM_P2
2022/05/10 00:01:36;;;;;;;9.30;4.82;;;;;;;;;;4971873;28;20038;-73
2022/05/10 00:04:03;;;;;;;7.53;4.63;;;;;;;;;;4975188;28;20366;-70
2022/05/10 00:06:31;;;;;;;7.65;5.78;;;;;;;;;;4977937;28;20779;-68
2022/05/10 00:08:56;;;;;;;6.88;4.65;;;;;;;;;;4976916;28;20098;-69
2022/05/10 00:11:22;;;;;;;5.00;3.90;;;;;;;;;;4975604;28;20030;-70
2022/05/10 00:13:47;;;;;;;8.25;4.15;;;;;;;;;;4970084;28;20358;-69
2022/05/10 00:16:14;;;;;;;4.75;3.70;;;;;;;;;;4976594;28;20091;-69
2022/05/10 00:18:40;;;;;;;7.57;4.57;;;;;;;;;;4977911;28;20054;-71
2022/05/10 00:21:06;;;;;;;6.82;4.18;;;;;;;;;;4977752;28;20452;-73
2022/05/10 00:23:32;;;;;;;7.07;3.70;;;;;;;;;;4970634;28;20053;-72
2022/05/10 00:25:57;;;;;;;6.28;4.18;;;;;;;;;;4967649;28;23987;-70
2022/05/10 00:28:22;;;;;;;9.27;4.45;;;;;;;;;;4977245;28;20037;-68
2022/05/10 00:30:48;;;;;;;8.40;4.35;;;;;;;;;;4975234;28;20431;-67
2022/05/10 00:33:17;;;;;;;5.13;3.80;;;;;;;;;;4967488;28;20060;-67
2022/05/10 00:35:42;;;;;;;6.13;3.92;;;;;;;;;;4975286;28;20346;-70
2022/05/10 00:38:08;;;;;;;6.80;3.65;;;;;;;;;;4975813;28;20026;-67
2022/05/10 00:40:35;;;;;;;6.22;4.03;;;;;;;;;;4975681;28;20030;-68
2022/05/10 00:43:12;;;;;;;7.43;4.35;;;;;;;;;;4976772;28;20410;-69
2022/05/10 00:45:56;;;;;;;8.52;3.72;;;;;;;;;;4976006;28;20089;-68
2022/05/10 00:48:33;;;;;;;4.88;3.78;;;;;;;;;;4976699;28;20445;-69
2022/05/10 00:51:08;;;;;;;8.50;5.65;;;;;;;;;;4975353;28;20081;-70
2022/05/10 00:53:39;;;;;;;12.27;8.07;;;;;;;;;;4969191;28;20022;-69
2022/05/10 00:56:09;;;;;;;11.10;5.82;;;;;;;;;;4967413;28;20030;-73
2022/05/10 00:58:34;;;;;;;10.00;5.90;;;;;;;;;;4975832;28;20033;-69
2022/05/10 01:01:00;;;;;;;7.20;4.50;;;;;;;;;;4977215;28;20054;-73
2022/05/10 01:03:30;;;;;;;6.22;4.07;;;;;;;;;;4976214;28;20030;-69
2022/05/10 01:06:04;;;;;;;6.25;4.45;;;;;;;;;;4976492;28;20014;-70
2022/05/10 01:08:34;;;;;;;4.43;3.00;;;;;;;;;;4969924;28;20026;-68
2022/05/10 01:11:06;;;;;;;7.38;3.72;;;;;;;;;;4973483;28;20167;-67
2022/05/10 01:13:33;;;;;;;8.75;4.00;;;;;;;;;;4975389;28;20033;-68
2022/05/10 01:16:10;;;;;;;4.75;3.53;;;;;;;;;;4974264;28;20022;-70
2022/05/10 01:18:36;;;;;;;6.75;3.65;;;;;;;;;;4972590;28;20038;-71
2022/05/10 01:21:18;;;;;;;6.55;3.60;;;;;;;;;;4976256;28;20038;-71
2022/05/10 01:23:50;;;;;;;5.13;4.35;;;;;;;;;;4968391;28;20031;-72
2022/05/10 01:26:24;;;;;;;6.28;4.10;;;;;;;;;;4967690;28;20087;-69
2022/05/10 01:28:57;;;;;;;6.40;4.00;;;;;;;;;;4977306;28;20438;-67
2022/05/10 01:31:30;;;;;;;4.70;3.08;;;;;;;;;;4975987;28;20018;-67
2022/05/10 01:34:01;;;;;;;8.45;3.30;;;;;;;;;;4975648;28;20042;-72
2022/05/10 01:36:35;;;;;;;6.22;3.75;;;;;;;;;;4969506;28;20023;-67
2022/05/10 01:39:09;;;;;;;4.72;3.10;;;;;;;;;;4972083;28;20469;-70
2022/05/10 01:41:37;;;;;;;5.47;3.78;;;;;;;;;;4966240;28;20121;-66
2022/05/10 01:44:06;;;;;;;3.85;2.97;;;;;;;;;;4975732;28;20034;-69
2022/05/10 01:46:32;;;;;;;8.95;3.90;;;;;;;;;;4976016;28;20026;-68
2022/05/10 01:49:03;;;;;;;5.68;3.50;;;;;;;;;;4975829;28;20026;-68
2022/05/10 01:51:57;;;;;;;4.93;3.20;;;;;;;;;;4976391;28;20049;-68
2022/05/10 01:54:29;;;;;;;4.93;3.20;;;;;;;;;;4988997;28;20489;-67
2022/05/10 01:56:54;;;;;;;4.72;3.40;;;;;;;;;;4964490;28;20441;-68
2022/05/10 01:59:20;;;;;;;6.03;3.50;;;;;;;;;;4969643;28;20054;-68
2022/05/10 02:01:47;;;;;;;4.75;3.50;;;;;;;;;;4975184;28;20167;-67
2022/05/10 02:04:14;;;;;;;6.75;4.22;;;;;;;;;;4973631;28;20453;-68
2022/05/10 02:06:49;;;;;;;11.90;5.80;;;;;;;;;;4975983;28;20392;-71
2022/05/10 02:09:32;;;;;;;10.25;4.63;;;;;;;;;;4974873;28;20081;-69
2022/05/10 02:12:09;;;;;;;5.07;3.72;;;;;;;;;;4975811;28;20126;-71
2022/05/10 02:14:53;;;;;;;5.38;3.53;;;;;;;;;;4964987;28;20022;-68
2022/05/10 02:17:21;;;;;;;9.10;4.70;;;;;;;;;;4966407;28;20023;-72
2022/05/10 02:19:47;;;;;;;6.38;4.38;;;;;;;;;;4965353;28;20058;-67
2022/05/10 02:22:21;;;;;;;6.40;4.13;;;;;;;;;;4964618;28;20102;-68
2022/05/10 02:24:50;;;;;;;5.65;3.63;;;;;;;;;;4974299;28;20092;-70
2022/05/10 02:27:19;;;;;;;5.22;3.65;;;;;;;;;;4973821;28;20045;-70
2022/05/10 02:29:52;;;;;;;3.25;2.78;;;;;;;;;;4974943;28;20037;-71
2022/05/10 02:35:22;;;;;;;5.03;3.30;;;;;;;;;;5018348;28;20038;-68
2022/05/10 02:37:47;;;;;;;5.43;3.47;;;;;;;;;;4975732;28;20022;-69
2022/05/10 02:40:13;;;;;;;10.35;3.42;;;;;;;;;;4974656;28;20041;-69
2022/05/10 02:42:48;;;;;;;4.55;3.10;;;;;;;;;;4974208;28;20033;-70
2022/05/10 02:45:18;;;;;;;25.90;15.27;;;;;;;;;;4975579;28;20108;-72
2022/05/10 02:47:44;;;;;;;16.35;9.35;;;;;;;;;;4976329;28;20058;-69
2022/05/10 02:50:23;;;;;;;9.20;6.05;;;;;;;;;;4974000;28;20034;-69
2022/05/10 02:52:49;;;;;;;6.03;3.85;;;;;;;;;;4978814;28;20113;-70
2022/05/10 02:55:16;;;;;;;8.52;3.80;;;;;;;;;;4976166;28;20172;-67
2022/05/10 02:57:42;;;;;;;9.52;7.82;;;;;;;;;;4974452;28;20022;-68
2022/05/10 03:00:07;;;;;;;10.38;7.38;;;;;;;;;;4973955;28;20057;-71
2022/05/10 03:02:38;;;;;;;8.38;5.65;;;;;;;;;;4971109;28;20056;-69
2022/05/10 03:05:05;;;;;;;6.45;5.25;;;;;;;;;;4976383;28;20094;-68
2022/05/10 03:07:30;;;;;;;6.97;4.68;;;;;;;;;;4977308;28;20429;-68
2022/05/10 03:09:56;;;;;;;7.43;4.97;;;;;;;;;;4974077;28;20037;-71
2022/05/10 03:12:21;;;;;;;6.63;3.88;;;;;;;;;;4966314;28;20045;-69
2022/05/10 03:14:47;;;;;;;6.95;3.60;;;;;;;;;;4972157;28;20044;-68
2022/05/10 03:17:12;;;;;;;3.25;2.90;;;;;;;;;;4981038;28;20028;-68
2022/05/10 03:19:38;;;;;;;4.03;3.15;;;;;;;;;;4977918;28;20027;-71
2022/05/10 03:22:04;;;;;;;4.75;3.30;;;;;;;;;;4977603;28;20084;-67
2022/05/10 03:24:30;;;;;;;6.13;3.47;;;;;;;;;;4981062;28;20022;-68
2022/05/10 03:26:55;;;;;;;5.95;3.28;;;;;;;;;;4979538;28;20033;-75
2022/05/10 03:29:21;;;;;;;7.45;3.63;;;;;;;;;;4974921;28;20030;-71
2022/05/10 03:31:46;;;;;;;4.72;3.53;;;;;;;;;;4974646;28;20092;-67
2022/05/10 03:36:56;;;;;;;7.05;3.67;;;;;;;;;;4978855;28;20037;-67
2022/05/10 03:39:21;;;;;;;4.43;3.85;;;;;;;;;;4976312;28;20027;-68
2022/05/10 03:41:46;;;;;;;10.85;6.10;;;;;;;;;;4978148;28;20049;-70
2022/05/10 03:44:12;;;;;;;14.63;6.75;;;;;;;;;;4977321;28;20022;-70
2022/05/10 03:46:37;;;;;;;11.77;5.85;;;;;;;;;;4977989;28;20100;-69
2022/05/10 03:49:03;;;;;;;8.52;4.95;;;;;;;;;;4975436;28;20026;-74
2022/05/10 03:51:29;;;;;;;8.45;5.18;;;;;;;;;;4963869;28;20031;-69
2022/05/10 03:53:54;;;;;;;9.50;4.93;;;;;;;;;;4963058;28;20030;-73
2022/05/10 03:56:20;;;;;;;9.85;4.50;;;;;;;;;;4963022;28;20453;-68
2022/05/10 03:58:45;;;;;;;6.68;3.10;;;;;;;;;;4967763;28;20117;-71
2022/05/10 04:01:11;;;;;;;4.72;3.60;;;;;;;;;;4962211;28;20050;-68
2022/05/10 04:03:36;;;;;;;3.75;3.10;;;;;;;;;;4963819;28;20022;-68
2022/05/10 04:06:02;;;;;;;5.40;4.30;;;;;;;;;;4963082;28;20033;-72
2022/05/10 04:08:28;;;;;;;8.48;6.18;;;;;;;;;;4964451;28;20053;-69
2022/05/10 04:10:53;;;;;;;7.93;4.80;;;;;;;;;;4963013;28;20449;-69
2022/05/10 04:13:19;;;;;;;7.05;5.30;;;;;;;;;;4965537;28;20521;-67
2022/05/10 04:15:44;;;;;;;8.23;4.90;;;;;;;;;;4964673;28;20037;-71
2022/05/10 04:18:09;;;;;;;10.52;3.95;;;;;;;;;;4967610;28;20022;-69
2022/05/10 04:20:35;;;;;;;9.27;3.92;;;;;;;;;;4970883;28;20027;-68
2022/05/10 04:23:00;;;;;;;9.05;4.85;;;;;;;;;;4971455;28;20084;-68
2022/05/10 04:25:26;;;;;;;10.40;3.90;;;;;;;;;;4969246;28;20092;-74
2022/05/10 04:27:52;;;;;;;6.90;4.25;;;;;;;;;;4959943;28;20122;-68
2022/05/10 04:30:17;;;;;;;7.38;4.43;;;;;;;;;;4964542;28;20105;-70
2022/05/10 04:32:43;;;;;;;7.97;4.72;;;;;;;;;;4967133;28;20049;-69
2022/05/10 04:35:08;;;;;;;6.72;3.63;;;;;;;;;;4973987;28;20109;-71
2022/05/10 04:37:34;;;;;;;7.32;4.32;;;;;;;;;;4962499;28;20054;-71
2022/05/10 04:42:44;;;;;;;6.57;4.20;;;;;;;;;;4964769;28;20088;-69
2022/05/10 04:45:09;;;;;;;9.90;4.10;;;;;;;;;;4965408;28;20026;-71
2022/05/10 04:47:34;;;;;;;5.20;3.88;;;;;;;;;;4963290;28;20046;-72
2022/05/10 04:50:01;;;;;;;5.32;3.55;;;;;;;;;;4963990;28;20050;-72
2022/05/10 04:52:27;;;;;;;7.78;4.22;;;;;;;;;;4963644;28;20030;-71
2022/05/10 04:54:52;;;;;;;7.18;4.28;;;;;;;;;;4963924;28;20033;-70
2022/05/10 04:57:17;;;;;;;9.80;5.03;;;;;;;;;;4963307;28;20030;-70
2022/05/10 04:59:42;;;;;;;8.27;4.18;;;;;;;;;;4963600;28;20471;-72
2022/05/10 05:02:08;;;;;;;8.32;5.38;;;;;;;;;;4962787;28;20052;-72
2022/05/10 05:04:33;;;;;;;7.18;4.88;;;;;;;;;;4972829;28;20030;-68
2022/05/10 05:06:58;;;;;;;7.45;6.05;;;;;;;;;;4968228;28;20033;-73
2022/05/10 05:09:24;;;;;;;9.70;6.18;;;;;;;;;;4975886;28;20039;-70
2022/05/10 05:11:49;;;;;;;9.68;6.25;;;;;;;;;;4977410;28;20030;-70
2022/05/10 05:14:14;;;;;;;16.77;7.70;;;;;;;;;;4977689;28;20471;-71
2022/05/10 05:16:39;;;;;;;11.00;6.55;;;;;;;;;;4979477;28;20034;-71
2022/05/10 05:19:05;;;;;;;8.77;6.05;;;;;;;;;;4976041;28;20091;-70
2022/05/10 05:21:31;;;;;;;16.35;5.85;;;;;;;;;;4967187;28;20121;-71
2022/05/10 05:23:56;;;;;;;12.38;6.65;;;;;;;;;;4976474;28;20022;-72
2022/05/10 05:26:22;;;;;;;8.10;6.05;;;;;;;;;;4966742;28;20026;-72
2022/05/10 05:28:47;;;;;;;6.93;5.72;;;;;;;;;;4978360;28;20170;-70
2022/05/10 05:31:13;;;;;;;7.78;5.40;;;;;;;;;;4977792;28;20022;-76
2022/05/10 05:33:39;;;;;;;10.18;6.65;;;;;;;;;;4978202;28;20026;-71
2022/05/10 05:36:04;;;;;;;7.45;6.63;;;;;;;;;;4977018;28;20030;-72
2022/05/10 05:38:30;;;;;;;11.25;7.05;;;;;;;;;;4978260;28;20031;-75
2022/05/10 05:40:55;;;;;;;10.13;6.93;;;;;;;;;;4972790;28;20038;-71
2022/05/10 05:43:21;;;;;;;7.10;5.78;;;;;;;;;;4963271;28;20026;-71
2022/05/10 05:45:48;;;;;;;10.55;5.40;;;;;;;;;;4964499;28;20037;-73
2022/05/10 05:48:13;;;;;;;8.48;4.68;;;;;;;;;;4976776;28;20406;-70
2022/05/10 05:50:39;;;;;;;8.07;5.38;;;;;;;;;;4977101;28;20227;-74
2022/05/10 05:53:05;;;;;;;8.73;4.82;;;;;;;;;;4977087;28;20034;-71
2022/05/10 05:55:30;;;;;;;10.55;4.20;;;;;;;;;;4963556;28;20156;-72
2022/05/10 05:57:57;;;;;;;7.22;4.75;;;;;;;;;;4977911;28;20132;-70
2022/05/10 06:00:24;;;;;;;7.07;4.65;;;;;;;;;;4975868;28;20081;-73
2022/05/10 06:02:50;;;;;;;6.35;4.65;;;;;;;;;;4974993;28;20440;-69
2022/05/10 06:05:15;;;;;;;6.90;4.13;;;;;;;;;;4976281;28;20022;-72
2022/05/10 06:07:40;;;;;;;5.50;4.38;;;;;;;;;;4975293;28;20100;-70
2022/05/10 06:10:07;;;;;;;15.10;5.90;;;;;;;;;;4973044;28;20095;-70
2022/05/10 06:12:32;;;;;;;9.40;4.75;;;;;;;;;;4976621;28;20023;-69
2022/05/10 06:14:58;;;;;;;7.80;4.32;;;;;;;;;;4976711;28;20034;-74
2022/05/10 06:17:24;;;;;;;9.20;4.50;;;;;;;;;;4975386;28;20050;-69
2022/05/10 06:19:49;;;;;;;8.82;4.05;;;;;;;;;;4975627;28;20038;-69
2022/05/10 06:22:14;;;;;;;7.65;3.70;;;;;;;;;;4975685;28;20054;-68
2022/05/10 06:24:40;;;;;;;7.05;3.88;;;;;;;;;;4967931;28;20434;-71
2022/05/10 06:27:06;;;;;;;6.25;3.38;;;;;;;;;;4973283;28;20361;-69
2022/05/10 06:29:33;;;;;;;8.27;3.15;;;;;;;;;;4972180;28;20048;-71
2022/05/10 06:31:58;;;;;;;3.63;2.92;;;;;;;;;;4976065;28;20038;-71
2022/05/10 06:34:24;;;;;;;5.75;3.10;;;;;;;;;;4975078;28;20041;-71
2022/05/10 06:36:49;;;;;;;7.05;3.13;;;;;;;;;;4976498;28;20392;-69
2022/05/10 06:39:14;;;;;;;3.20;2.53;;;;;;;;;;4979857;28;20059;-70
2022/05/10 06:41:39;;;;;;;6.63;2.60;;;;;;;;;;4978607;28;20042;-72
2022/05/10 06:44:05;;;;;;;3.50;2.45;;;;;;;;;;4978429;28;20101;-70
2022/05/10 06:46:32;;;;;;;7.15;2.80;;;;;;;;;;4979122;28;20045;-73
2022/05/10 06:48:58;;;;;;;4.47;2.95;;;;;;;;;;4978725;28;20033;-70
2022/05/10 06:51:24;;;;;;;8.25;3.10;;;;;;;;;;4979801;28;20027;-70
2022/05/10 06:53:50;;;;;;;3.88;2.83;;;;;;;;;;4978848;28;20022;-69
2022/05/10 06:56:15;;;;;;;6.38;3.15;;;;;;;;;;4978235;28;20034;-70
2022/05/10 06:58:41;;;;;;;5.15;2.70;;;;;;;;;;4978873;28;20410;-71
2022/05/10 07:01:11;;;;;;;6.35;2.90;;;;;;;;;;4979661;28;20065;-70
2022/05/10 07:03:37;;;;;;;4.85;2.83;;;;;;;;;;4980986;28;20029;-73
2022/05/10 07:06:05;;;;;;;5.32;3.00;;;;;;;;;;4979325;28;20048;-70
2022/05/10 07:08:30;;;;;;;5.82;4.00;;;;;;;;;;4979571;28;20041;-70
2022/05/10 07:10:55;;;;;;;4.78;3.60;;;;;;;;;;4980459;28;20026;-71
2022/05/10 07:13:23;;;;;;;5.88;4.10;;;;;;;;;;4977639;28;20368;-70
2022/05/10 07:15:48;;;;;;;6.10;3.78;;;;;;;;;;4980760;28;20034;-71
2022/05/10 07:18:14;;;;;;;5.25;4.00;;;;;;;;;;4975962;28;20037;-69
2022/05/10 07:20:40;;;;;;;5.88;3.58;;;;;;;;;;4978108;28;20040;-70
2022/05/10 07:23:06;;;;;;;5.68;3.90;;;;;;;;;;4977984;28;20058;-69
2022/05/10 07:25:31;;;;;;;9.93;4.20;;;;;;;;;;4979603;28;20451;-70
2022/05/10 07:27:57;;;;;;;8.43;4.28;;;;;;;;;;4979103;28;20026;-73
2022/05/10 07:30:23;;;;;;;5.50;4.07;;;;;;;;;;4979090;28;20030;-72
2022/05/10 07:32:49;;;;;;;6.65;3.28;;;;;;;;;;4978335;28;20034;-71
2022/05/10 07:35:14;;;;;;;8.60;3.63;;;;;;;;;;4978952;28;20022;-69
2022/05/10 07:37:40;;;;;;;8.18;4.15;;;;;;;;;;4978017;28;20438;-69
2022/05/10 07:40:06;;;;;;;9.38;3.58;;;;;;;;;;4975986;28;20130;-70
2022/05/10 07:42:32;;;;;;;7.32;3.83;;;;;;;;;;4977649;28;20331;-71
2022/05/10 07:44:57;;;;;;;10.85;4.35;;;;;;;;;;4978285;28;20117;-73
2022/05/10 07:47:23;;;;;;;5.57;3.83;;;;;;;;;;4980071;28;20109;-71
2022/05/10 07:49:49;;;;;;;13.52;3.50;;;;;;;;;;4975852;28;20030;-68
2022/05/10 07:52:14;;;;;;;10.50;3.20;;;;;;;;;;4976444;28;20040;-74
2022/05/10 07:54:40;;;;;;;5.65;2.70;;;;;;;;;;4976248;28;20369;-70
2022/05/10 07:57:05;;;;;;;5.13;3.00;;;;;;;;;;4978056;28;20026;-75
2022/05/10 07:59:31;;;;;;;5.80;3.10;;;;;;;;;;4979183;28;20066;-73
2022/05/10 08:01:57;;;;;;;6.30;3.58;;;;;;;;;;4968595;28;20121;-72
2022/05/10 08:04:23;;;;;;;5.55;3.13;;;;;;;;;;4979378;28;20037;-70
2022/05/10 08:06:50;;;;;;;8.13;3.33;;;;;;;;;;4978750;28;20427;-68
2022/05/10 08:09:15;;;;;;;6.03;2.83;;;;;;;;;;4978453;28;20027;-73
2022/05/10 08:11:41;;;;;;;4.97;3.25;;;;;;;;;;4978068;28;20032;-72
2022/05/10 08:14:06;;;;;;;6.78;2.88;;;;;;;;;;4976616;28;20039;-74
2022/05/10 08:16:33;;;;;;;6.07;2.97;;;;;;;;;;4979392;28;20076;-71
2022/05/10 08:18:58;;;;;;;6.47;2.78;;;;;;;;;;4969836;28;20040;-71
2022/05/10 08:21:24;;;;;;;4.50;2.65;;;;;;;;;;4974097;28;20055;-70
2022/05/10 08:23:52;;;;;;;3.42;2.38;;;;;;;;;;4973418;28;20045;-70
2022/05/10 08:26:19;;;;;;;6.22;3.25;;;;;;;;;;4962743;28;20026;-69
2022/05/10 08:28:45;;;;;;;7.78;3.30;;;;;;;;;;4969874;28;20101;-71
2022/05/10 08:31:10;;;;;;;4.28;3.00;;;;;;;;;;4973110;28;20120;-74
2022/05/10 08:33:37;;;;;;;4.93;2.72;;;;;;;;;;4974815;28;20460;-71
2022/05/10 08:36:02;;;;;;;6.55;3.15;;;;;;;;;;4966934;28;20066;-71
2022/05/10 08:38:29;;;;;;;13.38;9.73;;;;;;;;;;4968914;28;20127;-69
2022/05/10 08:41:08;;;;;;;5.15;3.42;;;;;;;;;;4976789;28;20034;-69
2022/05/10 08:43:39;;;;;;;5.93;3.47;;;;;;;;;;4978375;28;20032;-69
2022/05/10 08:46:06;;;;;;;5.00;2.80;;;;;;;;;;4977334;28;20026;-71
2022/05/10 08:48:31;;;;;;;5.15;2.20;;;;;;;;;;4977657;28;20030;-70
2022/05/10 08:50:57;;;;;;;4.57;2.53;;;;;;;;;;4978116;28;20039;-70
2022/05/10 08:53:23;;;;;;;4.18;2.20;;;;;;;;;;4977115;28;20091;-71
2022/05/10 08:56:00;;;;;;;3.35;2.10;;;;;;;;;;4978763;28;20118;-67
2022/05/10 08:58:47;;;;;;;3.33;2.20;;;;;;;;;;4982105;28;20444;-70
2022/05/10 09:01:15;;;;;;;4.75;2.08;;;;;;;;;;4974319;28;20051;-72
2022/05/10 09:03:40;;;;;;;6.13;2.00;;;;;;;;;;4975256;28;20032;-72
2022/05/10 09:06:09;;;;;;;3.78;2.20;;;;;;;;;;4975753;28;20360;-71
2022/05/10 09:08:37;;;;;;;6.90;2.63;;;;;;;;;;4977512;28;20490;-70
2022/05/10 09:11:04;;;;;;;2.23;1.80;;;;;;;;;;4977412;28;20272;-72
2022/05/10 09:13:30;;;;;;;3.53;2.50;;;;;;;;;;4976394;28;20297;-71
2022/05/10 09:15:59;;;;;;;3.65;1.92;;;;;;;;;;4979069;28;20080;-76
2022/05/10 09:18:30;;;;;;;3.08;2.60;;;;;;;;;;4977785;28;20030;-72
2022/05/10 09:21:04;;;;;;;5.40;2.30;;;;;;;;;;4974191;28;20513;-72
2022/05/10 09:23:39;;;;;;;3.15;2.10;;;;;;;;;;4973282;28;20038;-73
2022/05/10 09:26:04;;;;;;;3.95;1.75;;;;;;;;;;4964384;28;20029;-70
2022/05/10 09:28:30;;;;;;;3.25;1.85;;;;;;;;;;4964692;28;20398;-71
2022/05/10 09:36:25;;;;;;;3.90;1.70;;;;;;;;;;4964420;28;20123;-72
2022/05/10 09:38:51;;;;;;;3.13;2.10;;;;;;;;;;4964319;28;20027;-70
2022/05/10 09:41:29;;;;;;;2.22;1.70;;;;;;;;;;4965217;28;20118;-70
2022/05/10 09:43:55;;;;;;;3.15;2.10;;;;;;;;;;4965568;28;20026;-72
2022/05/10 09:46:24;;;;;;;4.32;1.90;;;;;;;;;;4965935;28;20063;-71
2022/05/10 09:48:49;;;;;;;3.45;1.73;;;;;;;;;;4963169;28;20033;-71
2022/05/10 09:51:33;;;;;;;4.60;2.10;;;;;;;;;;4970466;28;20038;-76
2022/05/10 09:54:01;;;;;;;2.08;1.88;;;;;;;;;;4976762;28;20026;-70
2022/05/10 09:56:32;;;;;;;2.83;1.80;;;;;;;;;;4972832;28;20038;-69
2022/05/10 09:58:59;;;;;;;4.70;2.17;;;;;;;;;;4972283;28;20023;-70
2022/05/10 10:01:38;;;;;;;3.28;1.83;;;;;;;;;;4964534;28;20026;-71
2022/05/10 10:04:27;;;;;;;2.00;1.45;;;;;;;;;;4972257;28;20057;-71
2022/05/10 10:07:03;;;;;;;2.25;1.83;;;;;;;;;;4981410;28;20038;-70
2022/05/10 10:09:48;;;;;;;2.65;2.00;;;;;;;;;;4963434;28;20083;-72
2022/05/10 10:12:16;;;;;;;3.35;1.77;;;;;;;;;;4963634;28;20385;-74
2022/05/10 10:14:44;;;;;;;2.88;2.35;;;;;;;;;;4967250;28;20030;-75
2022/05/10 10:17:22;;;;;;;2.60;2.13;;;;;;;;;;4973560;28;20350;-72
2022/05/10 10:19:50;;;;;;;2.33;2.00;;;;;;;;;;4964713;28;20076;-73
2022/05/10 10:22:19;;;;;;;3.53;2.20;;;;;;;;;;4964006;28;20034;-71
2022/05/10 10:24:44;;;;;;;;;;;;;;;;;;4967235;28;20446;-70
2022/05/10 10:27:13;;;;;;;3.87;1.90;;;;;;;;;;4977165;28;19910;-71
2022/05/10 10:29:45;;;;;;;4.15;2.22;;;;;;;;;;4970043;28;20042;-72
2022/05/10 10:32:20;;;;;;;3.63;1.98;;;;;;;;;;4974665;28;20464;-74
2022/05/10 10:34:46;;;;;;;4.07;2.17;;;;;;;;;;4974033;28;20110;-73
2022/05/10 10:37:13;;;;;;;3.60;2.35;;;;;;;;;;4965909;28;20101;-75
2022/05/10 10:39:57;;;;;;;3.10;2.75;;;;;;;;;;4964594;28;20037;-72
2022/05/10 10:42:41;;;;;;;2.53;2.15;;;;;;;;;;4972978;28;20469;-72
2022/05/10 10:45:13;;;;;;;2.50;2.30;;;;;;;;;;4973111;28;20104;-70
2022/05/10 10:47:57;;;;;;;6.13;2.60;;;;;;;;;;4971550;28;20038;-74
2022/05/10 10:50:27;;;;;;;4.20;2.38;;;;;;;;;;4970837;28;20357;-72
2022/05/10 10:52:54;;;;;;;3.00;2.20;;;;;;;;;;4975732;28;20109;-75
2022/05/10 10:55:21;;;;;;;3.13;2.60;;;;;;;;;;4977059;28;20422;-71
2022/05/10 10:57:46;;;;;;;3.88;2.30;;;;;;;;;;4977996;28;20110;-71
2022/05/10 11:00:12;;;;;;;3.07;2.60;;;;;;;;;;4976935;28;20066;-72
2022/05/10 11:02:40;;;;;;;5.68;2.50;;;;;;;;;;4978278;28;20715;-72
2022/05/10 11:05:11;;;;;;;5.88;2.33;;;;;;;;;;4977599;28;20036;-72
2022/05/10 11:07:37;;;;;;;5.30;2.33;;;;;;;;;;4976408;28;20038;-73
2022/05/10 11:10:09;;;;;;;2.93;2.33;;;;;;;;;;4976512;28;20430;-71
2022/05/10 11:12:34;;;;;;;3.17;2.47;;;;;;;;;;4974855;28;20320;-71
2022/05/10 11:14:59;;;;;;;2.38;2.17;;;;;;;;;;4977407;28;20035;-77
2022/05/10 11:17:27;;;;;;;3.83;2.57;;;;;;;;;;4977207;28;20426;-75
2022/05/10 11:19:59;;;;;;;3.60;2.50;;;;;;;;;;4968792;28;20271;-72
2022/05/10 11:22:24;;;;;;;9.65;2.45;;;;;;;;;;4974413;28;20122;-71
2022/05/10 11:24:49;;;;;;;4.47;2.50;;;;;;;;;;4970932;28;20109;-71
2022/05/10 11:27:30;;;;;;;3.42;2.70;;;;;;;;;;4978108;28;20463;-72
2022/05/10 11:29:55;;;;;;;4.18;2.40;;;;;;;;;;4980071;28;20050;-73
2022/05/10 11:32:23;;;;;;;3.67;2.50;;;;;;;;;;4980989;28;20030;-73
2022/05/10 11:35:02;;;;;;;5.57;3.73;;;;;;;;;;4980473;28;20027;-73
2022/05/10 11:37:31;;;;;;;6.15;2.90;;;;;;;;;;4980482;28;20441;-72
2022/05/10 11:40:14;;;;;;;5.78;2.50;;;;;;;;;;4980719;28;20015;-73
2022/05/10 11:43:00;;;;;;;2.60;2.17;;;;;;;;;;4979715;28;20115;-75
2022/05/10 11:45:32;;;;;;;4.68;2.40;;;;;;;;;;4978932;28;20876;-72
2022/05/10 11:48:07;;;;;;;3.70;1.90;;;;;;;;;;4980834;28;20041;-71
2022/05/10 11:50:36;;;;;;;3.08;2.00;;;;;;;;;;4980549;28;20458;-71
2022/05/10 11:53:01;;;;;;;3.73;2.30;;;;;;;;;;4979954;28;20056;-73
2022/05/10 11:55:56;;;;;;;4.88;2.15;;;;;;;;;;4980571;28;20031;-73
2022/05/10 11:58:23;;;;;;;4.40;2.70;;;;;;;;;;4989845;28;20524;-72
2022/05/10 12:00:54;;;;;;;4.50;2.42;;;;;;;;;;4976938;28;20054;-71
2022/05/10 12:03:38;;;;;;;4.90;2.35;;;;;;;;;;4972800;28;20049;-71
2022/05/10 12:06:33;;;;;;;3.83;2.00;;;;;;;;;;4980453;28;20382;-71
2022/05/10 12:09:00;;;;;;;4.50;2.15;;;;;;;;;;4992638;28;20365;-72
2022/05/10 12:11:28;;;;;;;3.40;2.50;;;;;;;;;;4980518;28;20065;-73
2022/05/10 12:22:17;;;;;;;4.53;2.20;;;;;;;;;;4979695;28;20389;-74
2022/05/10 12:24:46;;;;;;;3.88;1.98;;;;;;;;;;4977728;28;20030;-74
2022/05/10 12:27:11;;;;;;;3.25;2.33;;;;;;;;;;4978583;28;20109;-71
2022/05/10 12:29:39;;;;;;;6.60;2.30;;;;;;;;;;4978039;28;20138;-76
2022/05/10 12:32:23;;;;;;;8.77;3.47;;;;;;;;;;4979009;28;20272;-72
2022/05/10 12:34:56;;;;;;;17.40;6.05;;;;;;;;;;4979256;28;20022;-72
2022/05/10 12:37:28;;;;;;;6.00;3.10;;;;;;;;;;4984219;28;20031;-71
2022/05/10 12:39:58;;;;;;;5.75;3.15;;;;;;;;;;4978140;28;20625;-71
2022/05/10 12:42:32;;;;;;;4.13;2.92;;;;;;;;;;4979578;28;20030;-72
2022/05/10 12:45:16;;;;;;;2.90;2.33;;;;;;;;;;4980659;28;20066;-71
2022/05/10 12:48:13;;;;;;;3.05;2.50;;;;;;;;;;4979267;28;20552;-73
2022/05/10 12:50:45;;;;;;;2.53;2.00;;;;;;;;;;5013812;28;20046;-72
2022/05/10 12:53:21;;;;;;;4.25;2.17;;;;;;;;;;4979127;28;20201;-71
2022/05/10 12:55:46;;;;;;;3.05;2.13;;;;;;;;;;4979072;28;20026;-71
2022/05/10 12:58:17;;;;;;;3.28;2.42;;;;;;;;;;4979458;28;20130;-72
2022/05/10 13:00:44;;;;;;;3.00;2.03;;;;;;;;;;4979420;28;20084;-73
2022/05/10 13:03:12;;;;;;;3.72;2.47;;;;;;;;;;4978516;28;20023;-72
2022/05/10 13:05:57;;;;;;;4.75;2.33;;;;;;;;;;4976273;28;20053;-75
2022/05/10 13:08:31;;;;;;;4.18;2.42;;;;;;;;;;4972242;28;20058;-71
2022/05/10 13:10:58;;;;;;;4.90;3.40;;;;;;;;;;4979073;28;20645;-75
2022/05/10 13:13:26;;;;;;;8.95;3.58;;;;;;;;;;4977027;28;20104;-72
2022/05/10 13:15:52;;;;;;;10.25;4.75;;;;;;;;;;4979174;28;20028;-76
2022/05/10 13:18:20;;;;;;;8.48;5.38;;;;;;;;;;4972524;28;20057;-76
2022/05/10 13:20:52;;;;;;;9.15;5.55;;;;;;;;;;4965056;28;20038;-71
2022/05/10 13:23:19;;;;;;;12.98;7.82;;;;;;;;;;4964365;28;20076;-74
2022/05/10 13:25:44;;;;;;;8.30;4.30;;;;;;;;;;4966864;28;20730;-71
2022/05/10 13:28:17;;;;;;;6.03;3.90;;;;;;;;;;4977273;28;20662;-72
2022/05/10 13:30:45;;;;;;;9.18;5.28;;;;;;;;;;4973832;28;20041;-70
2022/05/10 13:33:13;;;;;;;21.95;5.40;;;;;;;;;;4962304;28;20023;-74
2022/05/10 13:35:38;;;;;;;11.15;4.78;;;;;;;;;;4963659;28;20014;-71
2022/05/10 13:38:15;;;;;;;5.50;3.90;;;;;;;;;;4955268;28;20809;-71
2022/05/10 13:40:46;;;;;;;11.70;5.20;;;;;;;;;;4965232;28;20035;-71
2022/05/10 13:43:22;;;;;;;7.28;4.35;;;;;;;;;;4962631;28;20350;-71
2022/05/10 13:45:55;;;;;;;4.72;3.55;;;;;;;;;;4975810;28;20030;-70
2022/05/10 13:48:28;;;;;;;5.50;3.38;;;;;;;;;;4966754;28;20026;-73
2022/05/10 13:51:02;;;;;;;6.47;3.60;;;;;;;;;;4967374;28;20031;-65
2022/05/10 13:53:30;;;;;;;4.72;3.70;;;;;;;;;;4973877;28;20034;-72
2022/05/10 13:55:56;;;;;;;3.55;2.70;;;;;;;;;;4959943;28;20860;-70
2022/05/10 13:58:32;;;;;;;4.30;3.10;;;;;;;;;;4964392;28;20056;-70
2022/05/10 14:00:59;;;;;;;3.13;2.53;;;;;;;;;;4973125;28;20046;-70
2022/05/10 14:03:26;;;;;;;5.80;3.08;;;;;;;;;;4965033;28;20030;-71
2022/05/10 14:05:58;;;;;;;4.82;2.78;;;;;;;;;;4976719;28;20622;-70
2022/05/10 14:08:24;;;;;;;6.47;2.97;;;;;;;;;;4976545;28;20035;-70
2022/05/10 14:11:10;;;;;;;3.67;2.58;;;;;;;;;;4976154;28;20424;-68
2022/05/10 14:13:36;;;;;;;3.30;2.42;;;;;;;;;;4975313;28;20044;-74
2022/05/10 14:16:02;;;;;;;8.40;3.80;;;;;;;;;;4969154;28;20026;-72
2022/05/10 14:18:29;;;;;;;3.92;2.85;;;;;;;;;;4973571;28;20141;-70
2022/05/10 14:21:01;;;;;;;4.18;3.00;;;;;;;;;;4962269;28;20038;-72
2022/05/10 14:23:28;;;;;;;3.83;2.70;;;;;;;;;;4964031;28;20031;-72
2022/05/10 14:25:54;;;;;;;7.93;2.85;;;;;;;;;;4963494;28;20366;-70
2022/05/10 14:28:30;;;;;;;4.47;2.72;;;;;;;;;;4968757;28;20392;-70
2022/05/10 14:30:55;;;;;;;3.00;2.63;;;;;;;;;;4977753;28;20091;-69
2022/05/10 14:33:22;;;;;;;5.97;3.03;;;;;;;;;;4976135;28;20038;-71
2022/05/10 14:35:55;;;;;;;3.60;2.90;;;;;;;;;;4973560;28;20026;-72
2022/05/10 14:38:24;;;;;;;5.93;3.45;;;;;;;;;;4965508;28;20519;-73
2022/05/10 14:40:51;;;;;;;4.60;3.13;;;;;;;;;;4963150;28;20030;-71
2022/05/10 14:43:23;;;;;;;5.05;3.88;;;;;;;;;;4964056;28;20035;-73
2022/05/10 14:45:51;;;;;;;6.20;3.75;;;;;;;;;;4962605;28;20114;-71
2022/05/10 14:48:37;;;;;;;8.30;4.22;;;;;;;;;;4972748;28;20034;-72
2022/05/10 14:51:08;;;;;;;4.13;3.42;;;;;;;;;;4963350;28;20034;-70
2022/05/10 14:53:50;;;;;;;5.80;3.22;;;;;;;;;;4964120;28;20023;-70
2022/05/10 14:56:18;;;;;;;3.58;2.80;;;;;;;;;;4966390;28;20104;-70
2022/05/10 14:58:44;;;;;;;4.75;2.60;;;;;;;;;;4961818;28;20030;-71
2022/05/10 15:01:10;;;;;;;3.70;3.22;;;;;;;;;;4975847;28;20047;-72
2022/05/10 15:03:37;;;;;;;7.82;5.60;;;;;;;;;;4980384;28;20034;-71
2022/05/10 15:06:02;;;;;;;8.65;4.90;;;;;;;;;;4969030;28;20334;-70
2022/05/10 15:08:28;;;;;;;7.93;4.82;;;;;;;;;;4967722;28;20026;-72
2022/05/10 15:10:56;;;;;;;7.95;4.75;;;;;;;;;;4962858;28;20023;-71
2022/05/10 15:13:22;;;;;;;6.65;4.78;;;;;;;;;;4965766;28;20711;-70
2022/05/10 15:15:50;;;;;;;5.78;4.15;;;;;;;;;;4967898;28;20033;-72